createdAt,value
2023-03-26T00:01:08.714Z,4.32
2023-03-26T00:03:35.816Z,3.67
2023-03-26T00:06:03.416Z,3.13
2023-03-26T00:08:29.944Z,3.10
2023-03-26T00:10:56.357Z,3.17
2023-03-26T00:13:22.824Z,3.42
2023-03-26T00:15:49.278Z,4.03
2023-03-26T00:18:15.924Z,2.85
2023-03-26T00:20:42.443Z,3.20
2023-03-26T00:23:08.916Z,2.95
2023-03-26T00:25:38.269Z,3.30
2023-03-26T00:28:06.196Z,2.80
2023-03-26T00:30:33.633Z,3.42
2023-03-26T00:33:00.114Z,3.30
2023-03-26T00:35:26.605Z,3.67
2023-03-26T00:37:53.432Z,3.38
2023-03-26T00:47:40.433Z,4.10
2023-03-26T00:50:07.638Z,3.72
2023-03-26T00:52:36.145Z,3.83
2023-03-26T00:55:03.023Z,4.30
2023-03-26T01:00:15.960Z,4.10
2023-03-26T01:02:45.083Z,5.00
2023-03-26T01:05:30.543Z,4.28
2023-03-26T01:08:15.037Z,4.53
2023-03-26T01:10:42.363Z,4.82
2023-03-26T01:13:09.278Z,4.72
2023-03-26T01:15:37.294Z,4.70
2023-03-26T01:18:05.462Z,4.78
2023-03-26T01:20:32.902Z,5.20
2023-03-26T01:23:02.198Z,5.53
2023-03-26T01:25:31.968Z,5.68
2023-03-26T01:27:58.584Z,5.07
2023-03-26T01:30:41.629Z,5.20
2023-03-26T01:33:22.202Z,5.07
2023-03-26T01:36:00.698Z,4.97
2023-03-26T01:38:46.838Z,6.00
2023-03-26T01:41:17.173Z,5.40
2023-03-26T01:43:56.794Z,5.15
2023-03-26T01:46:23.722Z,5.47
2023-03-26T01:51:26.528Z,5.20
2023-03-26T01:53:53.677Z,5.45
2023-03-26T01:56:26.124Z,5.30
2023-03-26T01:59:08.665Z,6.55
2023-03-26T02:02:14.133Z,5.65
2023-03-26T02:04:53.025Z,6.00
2023-03-26T02:07:34.912Z,6.40
2023-03-26T02:10:08.176Z,5.88
2023-03-26T02:12:39.020Z,6.22
2023-03-26T02:17:33.068Z,5.22
2023-03-26T02:20:05.846Z,7.15
2023-03-26T02:22:40.729Z,5.88
2023-03-26T02:25:09.840Z,7.35
2023-03-26T02:27:36.778Z,6.15
2023-03-26T02:30:04.769Z,7.70
2023-03-26T02:32:31.755Z,6.28
2023-03-26T02:34:58.610Z,7.10
2023-03-26T02:37:25.298Z,6.93
2023-03-26T02:40:00.800Z,7.03
2023-03-26T02:42:31.630Z,6.90
2023-03-26T02:44:58.275Z,7.00
2023-03-26T02:47:43.564Z,5.78
2023-03-26T02:50:50.180Z,7.53
2023-03-26T02:53:24.023Z,6.72
2023-03-26T02:55:58.925Z,8.10
2023-03-26T02:58:27.226Z,7.55
2023-03-26T03:00:56.781Z,6.78
2023-03-26T03:03:32.489Z,7.35
2023-03-26T03:06:18.743Z,7.88
2023-03-26T03:08:50.611Z,7.80
2023-03-26T03:11:18.291Z,8.07
2023-03-26T03:13:49.612Z,8.13
2023-03-26T03:16:20.084Z,7.82
2023-03-26T03:18:54.036Z,9.45
2023-03-26T03:21:22.431Z,8.48
2023-03-26T03:23:49.053Z,8.20
2023-03-26T03:26:17.299Z,8.65
2023-03-26T03:28:50.774Z,8.30
2023-03-26T03:31:17.783Z,9.02
2023-03-26T03:33:46.253Z,9.63
2023-03-26T03:36:19.958Z,10.88
2023-03-26T03:38:51.220Z,9.15
2023-03-26T03:41:20.361Z,9.90
2023-03-26T03:46:20.598Z,9.77
2023-03-26T03:48:49.856Z,10.30
2023-03-26T03:51:27.326Z,7.68
2023-03-26T03:53:58.511Z,10.00
2023-03-26T03:56:48.805Z,9.25
2023-03-26T03:59:53.583Z,9.40
2023-03-26T04:02:26.314Z,10.00
2023-03-26T04:04:57.551Z,10.13
2023-03-26T04:07:28.035Z,9.75
2023-03-26T04:10:08.325Z,10.02
2023-03-26T04:12:58.089Z,9.35
2023-03-26T04:15:44.090Z,9.23
2023-03-26T04:18:10.591Z,9.48
2023-03-26T04:20:40.984Z,9.82
2023-03-26T04:23:13.958Z,10.60
2023-03-26T04:25:48.370Z,9.85
2023-03-26T04:28:42.240Z,10.05
2023-03-26T04:31:24.716Z,10.70
2023-03-26T04:33:56.323Z,10.38
2023-03-26T04:36:27.103Z,10.38
2023-03-26T04:38:54.056Z,12.38
2023-03-26T04:41:26.946Z,10.18
2023-03-26T04:43:57.759Z,11.18
2023-03-26T04:46:45.227Z,10.93
2023-03-26T04:49:19.123Z,11.77
2023-03-26T04:51:47.081Z,11.63
2023-03-26T04:54:36.322Z,12.10
2023-03-26T04:57:09.412Z,10.40
2023-03-26T04:59:45.908Z,10.18
2023-03-26T05:02:14.180Z,11.85
2023-03-26T05:04:49.895Z,12.90
2023-03-26T05:07:18.676Z,13.30
2023-03-26T05:09:48.623Z,12.07
2023-03-26T05:12:16.571Z,13.13
2023-03-26T05:15:06.529Z,11.75
2023-03-26T05:17:53.153Z,11.80
2023-03-26T05:20:27.060Z,11.57
2023-03-26T05:22:53.810Z,10.43
2023-03-26T05:25:25.638Z,11.18
2023-03-26T05:27:52.549Z,11.05
2023-03-26T05:30:21.477Z,11.55
2023-03-26T05:32:53.466Z,11.25
2023-03-26T05:35:26.287Z,11.30
2023-03-26T05:37:52.881Z,11.77
2023-03-26T05:40:22.852Z,10.38
2023-03-26T05:43:08.507Z,11.05
2023-03-26T05:46:00.896Z,11.32
2023-03-26T05:48:30.630Z,9.95
2023-03-26T05:53:26.330Z,11.77
2023-03-26T05:56:25.053Z,10.20
2023-03-26T05:59:20.466Z,10.43
2023-03-26T06:02:05.415Z,9.85
2023-03-26T06:04:41.011Z,9.90
2023-03-26T06:07:33.989Z,10.65
2023-03-26T06:10:18.581Z,10.77
2023-03-26T06:12:46.124Z,10.50
2023-03-26T06:15:12.931Z,11.50
2023-03-26T06:17:46.629Z,10.50
2023-03-26T06:20:33.342Z,10.13
2023-03-26T06:23:04.006Z,10.15
2023-03-26T06:25:45.721Z,11.18
2023-03-26T06:28:36.615Z,10.10
2023-03-26T06:31:21.588Z,9.95
2023-03-26T06:33:56.768Z,9.25
2023-03-26T06:36:23.199Z,9.93
2023-03-26T06:38:50.530Z,8.68
2023-03-26T06:43:56.860Z,8.68
2023-03-26T06:46:41.632Z,7.43
2023-03-26T06:49:26.374Z,7.55
2023-03-26T06:52:15.357Z,7.45
2023-03-26T06:54:48.855Z,7.30
2023-03-26T06:57:35.344Z,7.75
2023-03-26T07:00:21.841Z,6.47
2023-03-26T07:03:06.635Z,7.40
2023-03-26T07:05:51.343Z,7.75
2023-03-26T07:08:46.828Z,6.13
2023-03-26T07:11:39.085Z,7.28
2023-03-26T07:14:32.634Z,6.90
2023-03-26T07:17:19.312Z,6.65
2023-03-26T07:19:53.610Z,8.02
2023-03-26T07:22:24.493Z,8.50
2023-03-26T07:25:17.330Z,8.50
2023-03-26T07:27:46.878Z,7.53
2023-03-26T07:30:34.154Z,6.97
2023-03-26T07:33:19.486Z,7.60
2023-03-26T07:36:05.891Z,7.80
2023-03-26T07:41:51.131Z,8.13
2023-03-26T07:45:01.958Z,6.95
2023-03-26T07:47:47.082Z,7.35
2023-03-26T07:50:38.745Z,8.02
2023-03-26T07:53:11.766Z,8.88
2023-03-26T07:55:57.954Z,9.68
2023-03-26T08:01:47.215Z,8.77
2023-03-26T08:04:28.123Z,9.73
2023-03-26T08:07:17.951Z,9.80
2023-03-26T08:10:04.735Z,9.52
2023-03-26T08:13:10.772Z,9.07
2023-03-26T08:18:08.417Z,9.25
2023-03-26T08:20:47.776Z,10.35
2023-03-26T08:23:19.374Z,8.90
2023-03-26T08:25:49.908Z,9.68
2023-03-26T08:28:16.339Z,10.32
2023-03-26T08:30:43.208Z,10.60
2023-03-26T08:33:12.842Z,9.68
2023-03-26T08:35:42.475Z,10.63
2023-03-26T08:38:09.860Z,9.85
2023-03-26T08:40:55.402Z,9.05
2023-03-26T08:43:24.966Z,9.60
2023-03-26T08:46:15.604Z,9.35
2023-03-26T08:48:51.035Z,8.70
2023-03-26T08:51:27.774Z,10.07
2023-03-26T08:54:13.039Z,10.00
2023-03-26T08:56:46.608Z,10.30
2023-03-26T08:59:19.126Z,10.20
2023-03-26T09:01:51.824Z,9.30
2023-03-26T09:04:37.092Z,10.32
2023-03-26T09:07:21.832Z,9.98
2023-03-26T09:10:06.873Z,10.65
2023-03-26T09:12:36.348Z,10.93
2023-03-26T09:15:21.537Z,11.52
2023-03-26T09:17:48.039Z,11.60
2023-03-26T09:22:41.030Z,11.82
2023-03-26T09:25:15.414Z,12.50
2023-03-26T09:28:11.544Z,15.35
2023-03-26T09:30:43.948Z,15.75
2023-03-26T09:33:21.665Z,15.95
2023-03-26T09:35:54.535Z,16.08
2023-03-26T09:38:39.871Z,17.45
2023-03-26T09:41:15.731Z,15.88
2023-03-26T09:43:51.406Z,16.23
2023-03-26T09:46:23.904Z,16.07
2023-03-26T09:49:01.887Z,17.20
2023-03-26T09:51:37.991Z,16.75
2023-03-26T09:54:17.622Z,16.33
2023-03-26T09:57:06.239Z,14.98
2023-03-26T09:59:32.642Z,14.45
2023-03-26T10:02:17.849Z,15.43
2023-03-26T10:04:44.280Z,14.73
2023-03-26T10:07:24.097Z,15.32
2023-03-26T10:10:05.448Z,14.70
2023-03-26T10:12:36.556Z,14.60
2023-03-26T10:15:18.323Z,12.70
2023-03-26T10:17:51.501Z,12.93
2023-03-26T10:20:33.523Z,12.45
2023-03-26T10:23:00.809Z,13.02
2023-03-26T10:25:53.474Z,12.45
2023-03-26T10:28:20.292Z,12.35
2023-03-26T10:30:59.188Z,12.40
2023-03-26T10:33:46.778Z,12.07
2023-03-26T10:36:33.163Z,11.13
2023-03-26T10:39:37.415Z,11.10
2023-03-26T10:42:05.722Z,9.70
2023-03-26T10:44:44.952Z,11.32
2023-03-26T10:47:14.507Z,10.60
2023-03-26T10:49:44.680Z,10.63
2023-03-26T10:52:15.959Z,8.43
2023-03-26T10:54:48.497Z,8.95
2023-03-26T10:57:24.099Z,8.13
2023-03-26T10:59:51.855Z,7.33
2023-03-26T11:02:30.728Z,6.82
2023-03-26T11:05:00.604Z,7.05
2023-03-26T11:07:30.626Z,6.90
2023-03-26T11:10:04.404Z,7.35
2023-03-26T11:12:41.160Z,6.95
2023-03-26T11:15:17.498Z,7.13
2023-03-26T11:17:49.943Z,6.90
2023-03-26T11:20:28.564Z,6.60
2023-03-26T11:23:04.232Z,6.13
2023-03-26T11:25:31.060Z,5.40
2023-03-26T11:28:16.375Z,5.47
2023-03-26T11:31:09.488Z,5.70
2023-03-26T11:33:45.436Z,5.82
2023-03-26T11:36:33.398Z,4.88
2023-03-26T11:39:01.202Z,5.15
2023-03-26T11:41:31.287Z,4.32
2023-03-26T11:44:08.913Z,4.30
2023-03-26T11:46:38.715Z,4.55
2023-03-26T11:49:09.230Z,4.38
2023-03-26T11:51:36.768Z,4.47
2023-03-26T11:54:04.005Z,4.03
2023-03-26T11:56:36.991Z,4.25
2023-03-26T11:59:11.514Z,4.22
2023-03-26T12:01:50.376Z,4.47
2023-03-26T12:04:25.091Z,4.28
2023-03-26T12:06:53.336Z,3.80
2023-03-26T12:09:20.176Z,4.18
2023-03-26T12:11:50.349Z,4.20
2023-03-26T12:14:17.992Z,4.47
2023-03-26T12:17:01.796Z,4.40
2023-03-26T12:19:34.118Z,4.60
2023-03-26T12:22:00.698Z,5.00
2023-03-26T12:24:28.093Z,4.97
2023-03-26T12:27:02.365Z,4.32
2023-03-26T12:29:34.039Z,4.72
2023-03-26T12:32:18.520Z,4.40
2023-03-26T12:34:46.958Z,4.68
2023-03-26T12:37:34.366Z,4.43
2023-03-26T12:40:22.172Z,4.05
2023-03-26T12:44:50.880Z,3.40
2023-03-26T12:45:41.619Z,3.90
2023-03-26T12:48:10.638Z,3.33
2023-03-26T12:50:47.786Z,3.00
2023-03-26T12:53:29.445Z,2.90
2023-03-26T12:56:00.237Z,2.92
2023-03-26T12:58:26.626Z,2.55
2023-03-26T13:01:03.051Z,2.72
2023-03-26T13:06:06.644Z,2.58
2023-03-26T13:08:39.495Z,2.67
2023-03-26T13:11:08.953Z,2.90
2023-03-26T13:13:56.455Z,2.35
2023-03-26T13:16:36.598Z,3.45
2023-03-26T13:19:09.084Z,2.83
2023-03-26T13:21:38.519Z,2.53
2023-03-26T13:24:15.370Z,2.45
2023-03-26T13:26:48.417Z,2.55
2023-03-26T13:29:20.543Z,3.55
2023-03-26T13:32:05.936Z,2.33
2023-03-26T13:34:44.698Z,2.25
2023-03-26T13:37:34.955Z,1.95
2023-03-26T13:40:22.224Z,2.92
2023-03-26T13:43:05.486Z,1.90
2023-03-26T13:45:31.832Z,2.50
2023-03-26T13:47:59.159Z,1.88
2023-03-26T13:50:27.767Z,2.33
2023-03-26T13:53:01.619Z,2.25
2023-03-26T13:55:28.223Z,2.55
2023-03-26T14:00:41.888Z,1.80
2023-03-26T14:03:13.281Z,1.88
2023-03-26T14:05:42.622Z,2.50
2023-03-26T14:08:21.803Z,2.13
2023-03-26T14:10:51.116Z,2.20
2023-03-26T14:13:20.503Z,2.50
2023-03-26T14:15:48.258Z,1.90
2023-03-26T14:18:33.423Z,2.47
2023-03-26T14:21:18.339Z,1.92
2023-03-26T14:23:54.052Z,2.33
2023-03-26T14:26:20.486Z,2.22
2023-03-26T14:29:05.608Z,2.30
2023-03-26T14:31:51.578Z,2.00
2023-03-26T14:39:13.949Z,1.85
2023-03-26T14:41:48.626Z,2.17
2023-03-26T14:44:48.177Z,2.40
2023-03-26T14:47:15.924Z,1.80
2023-03-26T14:50:04.926Z,2.03
2023-03-26T14:52:37.470Z,1.73
2023-03-26T14:55:05.445Z,2.03
2023-03-26T14:57:44.102Z,2.10
2023-03-26T15:00:41.198Z,2.53
2023-03-26T15:03:13.760Z,1.67
2023-03-26T15:05:59.189Z,1.65
2023-03-26T15:08:45.541Z,1.50
2023-03-26T15:11:50.537Z,1.60
2023-03-26T15:14:34.807Z,2.20
2023-03-26T15:17:10.179Z,2.42
2023-03-26T15:19:55.629Z,2.35
2023-03-26T15:22:40.820Z,1.87
2023-03-26T15:25:10.298Z,1.98
2023-03-26T15:27:38.714Z,2.10
2023-03-26T15:30:13.999Z,2.13
2023-03-26T15:32:59.378Z,1.80
2023-03-26T15:35:26.197Z,2.30
2023-03-26T15:38:01.782Z,2.22
2023-03-26T15:40:34.206Z,2.00
2023-03-26T15:43:20.079Z,2.40
2023-03-26T15:46:05.401Z,2.45
2023-03-26T15:48:36.623Z,2.70
2023-03-26T15:51:06.590Z,2.20
2023-03-26T15:53:41.122Z,2.03
2023-03-26T15:56:12.561Z,2.10
2023-03-26T15:58:45.147Z,2.00
2023-03-26T16:01:19.039Z,2.00
2023-03-26T16:03:51.126Z,2.17
2023-03-26T16:06:20.322Z,2.00
2023-03-26T16:08:47.043Z,1.90
2023-03-26T16:11:13.677Z,2.10
2023-03-26T16:13:40.807Z,1.90
2023-03-26T16:16:16.781Z,1.95
2023-03-26T16:18:44.889Z,2.13
2023-03-26T16:21:31.493Z,2.05
2023-03-26T16:24:02.206Z,2.03
2023-03-26T16:26:31.714Z,1.50
2023-03-26T16:29:18.109Z,1.90
2023-03-26T16:32:03.578Z,1.65
2023-03-26T16:34:38.825Z,1.70
2023-03-26T16:37:07.958Z,1.92
2023-03-26T16:39:38.857Z,1.80
2023-03-26T16:42:28.415Z,2.05
2023-03-26T16:44:54.901Z,1.92
2023-03-26T16:47:37.548Z,2.30
2023-03-26T16:50:24.530Z,1.98
2023-03-26T16:53:00.948Z,1.88
2023-03-26T16:58:13.943Z,2.03
2023-03-26T17:00:59.941Z,1.83
2023-03-26T17:03:47.989Z,1.52
2023-03-26T17:06:18.990Z,1.60
2023-03-26T17:08:54.589Z,2.03
2023-03-26T17:11:25.226Z,1.90
2023-03-26T17:14:03.573Z,2.00
2023-03-26T17:16:30.198Z,1.40
2023-03-26T17:21:45.865Z,1.90
2023-03-26T17:24:22.595Z,1.83
2023-03-26T17:27:21.721Z,1.70
2023-03-26T17:30:00.470Z,1.17
2023-03-26T17:32:47.110Z,1.65
2023-03-26T17:35:15.281Z,1.70
2023-03-26T17:37:47.800Z,1.48
2023-03-26T17:40:29.074Z,1.75
2023-03-26T17:43:18.559Z,1.55
2023-03-26T17:45:47.094Z,1.60
2023-03-26T17:48:34.889Z,1.80
2023-03-26T17:51:13.005Z,1.73
2023-03-26T17:53:40.984Z,1.80
2023-03-26T17:56:13.737Z,1.60
2023-03-26T17:58:45.324Z,1.95
2023-03-26T18:01:18.168Z,1.60
2023-03-26T18:03:49.725Z,1.77
2023-03-26T18:06:36.616Z,1.60
2023-03-26T18:09:12.714Z,1.63
2023-03-26T18:11:58.147Z,1.42
2023-03-26T18:14:39.057Z,1.45
2023-03-26T18:17:08.251Z,1.67
2023-03-26T18:19:48.076Z,1.70
2023-03-26T18:22:18.762Z,1.90
2023-03-26T18:24:45.631Z,2.10
2023-03-26T18:27:14.692Z,1.52
2023-03-26T18:29:56.368Z,1.48
2023-03-26T18:32:31.162Z,1.50
2023-03-26T18:35:20.140Z,1.83
2023-03-26T18:37:49.107Z,1.80
2023-03-26T18:40:16.604Z,1.63
2023-03-26T18:42:55.166Z,1.48
2023-03-26T18:45:29.359Z,1.85
2023-03-26T18:47:57.223Z,2.30
2023-03-26T18:50:27.847Z,1.98
2023-03-26T18:52:56.986Z,2.47
2023-03-26T18:55:26.089Z,2.03
2023-03-26T18:57:52.554Z,7.07
2023-03-26T19:00:21.206Z,2.85
2023-03-26T19:02:49.721Z,2.40
2023-03-26T19:05:16.803Z,3.13
2023-03-26T19:07:45.787Z,4.18
2023-03-26T19:10:18.867Z,2.40
2023-03-26T19:12:46.343Z,1.65
2023-03-26T19:15:13.688Z,1.63
2023-03-26T19:17:42.461Z,2.38
2023-03-26T19:20:14.870Z,1.52
2023-03-26T19:22:42.306Z,2.13
2023-03-26T19:25:16.661Z,1.50
2023-03-26T19:27:43.820Z,1.70
2023-03-26T19:30:14.572Z,1.58
2023-03-26T19:32:41.062Z,1.65
2023-03-26T19:35:19.812Z,1.98
2023-03-26T19:37:50.917Z,1.90
2023-03-26T19:40:21.726Z,2.25
2023-03-26T19:42:48.830Z,1.92
2023-03-26T19:45:17.713Z,1.98
2023-03-26T19:47:52.158Z,1.73
2023-03-26T19:50:28.405Z,1.90
2023-03-26T19:53:16.728Z,1.77
2023-03-26T19:55:52.754Z,1.77
2023-03-26T19:58:19.722Z,1.70
2023-03-26T20:00:46.204Z,1.40
2023-03-26T20:03:13.240Z,1.85
2023-03-26T20:05:39.779Z,1.65
2023-03-26T20:08:16.211Z,1.80
2023-03-26T20:10:43.006Z,2.03
2023-03-26T20:18:04.019Z,1.60
2023-03-26T20:20:31.613Z,1.75
2023-03-26T20:22:58.592Z,1.50
2023-03-26T20:25:31.426Z,2.00
2023-03-26T20:27:59.094Z,2.40
2023-03-26T20:33:13.046Z,2.47
2023-03-26T20:35:40.552Z,2.38
2023-03-26T20:40:36.213Z,2.47
2023-03-26T20:43:02.689Z,2.80
2023-03-26T20:45:29.174Z,2.75
2023-03-26T20:47:55.745Z,2.63
2023-03-26T20:50:23.130Z,2.38
2023-03-26T20:52:50.241Z,1.73
2023-03-26T20:55:17.819Z,1.65
2023-03-26T20:57:46.407Z,2.55
2023-03-26T21:00:20.084Z,1.63
2023-03-26T21:02:46.710Z,1.75
2023-03-26T21:05:18.927Z,1.42
2023-03-26T21:07:45.578Z,1.67
2023-03-26T21:10:13.166Z,1.48
2023-03-26T21:12:46.095Z,1.70
2023-03-26T21:15:22.533Z,2.10
2023-03-26T21:17:51.276Z,1.75
2023-03-26T21:20:18.568Z,1.40
2023-03-26T21:23:00.129Z,2.03
2023-03-26T21:25:31.990Z,1.75
2023-03-26T21:27:58.413Z,2.38
2023-03-26T21:30:25.762Z,1.65
2023-03-26T21:32:52.260Z,2.15
2023-03-26T21:35:19.066Z,1.80
2023-03-26T21:37:48.536Z,1.65
2023-03-26T21:40:16.469Z,1.45
2023-03-26T21:42:44.004Z,1.40
2023-03-26T21:45:10.840Z,1.35
2023-03-26T21:50:04.438Z,1.75
2023-03-26T21:52:31.901Z,1.73
2023-03-26T21:55:00.655Z,1.45
2023-03-26T21:57:39.280Z,1.63
2023-03-26T22:00:11.395Z,1.60
2023-03-26T22:02:56.257Z,1.50
2023-03-26T22:05:26.440Z,2.05
2023-03-26T22:07:56.461Z,1.60
2023-03-26T22:10:23.309Z,1.70
2023-03-26T22:15:18.182Z,1.50
2023-03-26T22:17:45.386Z,1.35
2023-03-26T22:20:13.946Z,1.30
2023-03-26T22:22:41.457Z,1.45
2023-03-26T22:25:10.320Z,1.65
2023-03-26T22:27:44.134Z,1.50
2023-03-26T22:30:11.759Z,1.63
2023-03-26T22:32:38.824Z,1.90
2023-03-26T22:35:05.816Z,1.30
2023-03-26T22:37:32.239Z,1.52
2023-03-26T22:39:59.773Z,1.80
2023-03-26T22:42:26.190Z,1.65
2023-03-26T22:44:52.684Z,1.30
2023-03-26T22:47:21.734Z,1.58
2023-03-26T22:49:48.138Z,1.15
2023-03-26T22:52:14.661Z,1.35
2023-03-26T22:54:41.313Z,1.25
2023-03-26T22:57:07.898Z,1.52
2023-03-26T22:59:34.424Z,1.40
2023-03-26T23:02:01.024Z,1.25
2023-03-26T23:04:32.258Z,1.50
2023-03-26T23:06:59.849Z,1.70
2023-03-26T23:09:26.415Z,1.63
2023-03-26T23:11:52.947Z,1.40
2023-03-26T23:14:19.353Z,1.45
2023-03-26T23:16:45.734Z,1.35
2023-03-26T23:19:12.242Z,1.50
2023-03-26T23:21:38.914Z,1.45
2023-03-26T23:24:05.436Z,1.30
2023-03-26T23:26:43.974Z,1.40
2023-03-26T23:29:16.505Z,1.55
2023-03-26T23:31:43.051Z,1.20
2023-03-26T23:34:10.121Z,1.38
2023-03-26T23:36:36.627Z,2.08
2023-03-26T23:39:04.787Z,1.35
2023-03-26T23:41:31.378Z,1.20
2023-03-26T23:43:57.789Z,1.30
2023-03-26T23:46:25.082Z,1.40
2023-03-26T23:48:52.003Z,1.20
2023-03-26T23:53:46.699Z,1.30
2023-03-26T23:56:13.529Z,1.23
